createdAt,value
2023-03-19T01:13:39.454Z,22.15
2023-03-19T01:16:06.667Z,23.00
2023-03-19T01:18:33.362Z,22.25
2023-03-19T01:21:00.408Z,18.58
2023-03-19T01:23:26.968Z,21.92
2023-03-19T01:25:53.481Z,27.23
2023-03-19T01:28:20.460Z,21.20
2023-03-19T01:30:46.915Z,21.40
2023-03-19T01:33:13.999Z,24.73
2023-03-19T01:46:32.332Z,23.33
2023-03-19T01:49:02.757Z,22.97
2023-03-19T01:51:34.526Z,22.45
2023-03-19T01:54:04.453Z,24.63
2023-03-19T01:56:36.591Z,21.23
2023-03-19T01:59:09.591Z,26.25
2023-03-19T02:01:45.886Z,28.85
2023-03-19T02:04:13.979Z,23.90
2023-03-19T02:07:14.947Z,23.35
2023-03-19T02:09:41.935Z,24.05
2023-03-19T02:12:09.676Z,20.25
2023-03-19T02:14:36.822Z,19.27
2023-03-19T02:17:03.781Z,25.75
2023-03-19T02:19:36.235Z,22.83
2023-03-19T02:22:04.711Z,20.13
2023-03-19T02:24:37.203Z,21.75
2023-03-19T02:27:04.928Z,19.45
2023-03-19T02:29:31.593Z,27.98
2023-03-19T02:31:58.039Z,22.92
2023-03-19T02:34:24.376Z,26.67
2023-03-19T02:36:58.946Z,26.67
2023-03-19T02:39:32.446Z,18.63
2023-03-19T02:42:00.883Z,23.80
2023-03-19T02:44:27.403Z,23.67
2023-03-19T02:46:54.012Z,21.92
2023-03-19T02:49:20.602Z,23.92
2023-03-19T02:51:47.187Z,22.20
2023-03-19T02:54:13.758Z,22.20
2023-03-19T02:56:40.426Z,23.10
2023-03-19T02:59:07.256Z,19.70
2023-03-19T03:01:33.680Z,24.73
2023-03-19T03:04:00.212Z,24.52
2023-03-19T03:06:26.662Z,20.30
2023-03-19T03:08:53.198Z,20.88
2023-03-19T03:11:20.385Z,24.40
2023-03-19T03:13:47.012Z,27.90
2023-03-19T03:16:13.713Z,22.00
2023-03-19T03:18:40.442Z,23.02
2023-03-19T03:21:06.996Z,27.23
2023-03-19T03:23:33.524Z,24.85
2023-03-19T03:26:00.080Z,26.17
2023-03-19T03:28:26.551Z,27.10
2023-03-19T03:30:59.037Z,27.45
2023-03-19T03:33:25.759Z,24.73
2023-03-19T03:35:52.446Z,26.20
2023-03-19T03:38:19.081Z,23.92
2023-03-19T03:40:45.726Z,25.73
2023-03-19T03:43:12.161Z,24.85
2023-03-19T03:45:38.892Z,28.63
2023-03-19T03:48:05.975Z,26.88
2023-03-19T03:50:32.673Z,26.08
2023-03-19T03:52:59.277Z,25.38
2023-03-19T03:55:25.934Z,25.50
2023-03-19T03:57:52.472Z,19.88
2023-03-19T04:00:19.320Z,28.98
2023-03-19T04:02:46.252Z,25.13
2023-03-19T04:05:12.830Z,24.25
2023-03-19T04:07:39.666Z,25.13
2023-03-19T04:10:06.388Z,22.00
2023-03-19T04:12:33.324Z,24.10
2023-03-19T04:14:59.817Z,23.35
2023-03-19T04:17:26.343Z,30.50
2023-03-19T04:19:53.172Z,28.70
2023-03-19T04:22:19.593Z,21.65
2023-03-19T04:24:46.104Z,25.77
2023-03-19T04:27:12.586Z,28.75
2023-03-19T04:29:39.112Z,29.80
2023-03-19T04:32:06.343Z,22.95
2023-03-19T04:34:32.878Z,29.73
2023-03-19T04:36:59.300Z,26.42
2023-03-19T04:39:25.997Z,28.52
2023-03-19T04:41:52.510Z,27.27
2023-03-19T04:44:19.070Z,24.58
2023-03-19T04:46:46.379Z,26.42
2023-03-19T04:49:13.005Z,28.17
2023-03-19T04:51:39.700Z,23.98
2023-03-19T04:54:06.149Z,29.45
2023-03-19T04:56:33.078Z,30.48
2023-03-19T04:58:59.578Z,30.30
2023-03-19T05:01:26.176Z,28.00
2023-03-19T05:03:52.711Z,30.65
2023-03-19T05:06:19.996Z,37.15
2023-03-19T05:08:47.065Z,33.53
2023-03-19T05:11:13.485Z,42.42
2023-03-19T05:13:40.026Z,43.90
2023-03-19T05:16:06.759Z,42.63
2023-03-19T05:18:33.603Z,41.08
2023-03-19T05:21:00.257Z,46.08
2023-03-19T05:23:26.679Z,42.50
2023-03-19T05:25:53.142Z,43.45
2023-03-19T05:28:19.570Z,50.50
2023-03-19T05:30:46.613Z,49.33
2023-03-19T05:33:13.244Z,40.25
2023-03-19T05:35:40.562Z,40.75
2023-03-19T05:38:07.434Z,37.17
2023-03-19T05:40:36.024Z,40.88
2023-03-19T05:43:02.587Z,35.83
2023-03-19T05:45:29.143Z,40.13
2023-03-19T05:47:55.728Z,43.72
2023-03-19T05:50:22.189Z,35.85
2023-03-19T05:52:48.776Z,33.60
2023-03-19T05:55:15.442Z,29.48
2023-03-19T05:57:42.303Z,32.25
2023-03-19T06:00:09.952Z,35.60
2023-03-19T06:02:37.029Z,33.67
2023-03-19T06:05:04.270Z,31.70
2023-03-19T06:07:30.847Z,33.20
2023-03-19T06:09:57.588Z,38.45
2023-03-19T06:12:24.805Z,35.35
2023-03-19T06:14:51.954Z,31.75
2023-03-19T06:17:18.439Z,30.38
2023-03-19T06:19:44.913Z,37.90
2023-03-19T06:22:11.965Z,32.83
2023-03-19T06:24:38.430Z,37.67
2023-03-19T06:27:04.921Z,34.95
2023-03-19T06:29:31.597Z,33.40
2023-03-19T06:31:58.366Z,32.30
2023-03-19T06:34:25.414Z,35.05
2023-03-19T06:36:53.736Z,35.80
2023-03-19T06:39:20.468Z,32.58
2023-03-19T06:41:46.988Z,36.45
2023-03-19T06:44:13.465Z,31.63
2023-03-19T06:46:39.971Z,30.83
2023-03-19T06:49:06.921Z,35.00
2023-03-19T06:51:33.469Z,33.70
2023-03-19T06:53:59.988Z,29.58
2023-03-19T06:56:27.174Z,33.65
2023-03-19T06:58:53.675Z,30.27
2023-03-19T07:01:20.123Z,32.55
2023-03-19T07:03:46.685Z,36.03
2023-03-19T07:06:13.368Z,30.98
2023-03-19T07:08:39.835Z,33.95
2023-03-19T07:11:07.228Z,30.88
2023-03-19T07:13:34.337Z,29.55
2023-03-19T07:16:00.910Z,33.92
2023-03-19T07:18:27.417Z,32.20
2023-03-19T07:20:53.993Z,30.20
2023-03-19T07:23:20.542Z,43.60
2023-03-19T07:25:47.718Z,35.45
2023-03-19T07:28:14.828Z,40.80
2023-03-19T07:30:41.373Z,39.15
2023-03-19T07:33:08.284Z,34.67
2023-03-19T07:35:35.200Z,40.88
2023-03-19T07:38:02.634Z,40.42
2023-03-19T07:40:29.295Z,36.70
2023-03-19T07:42:55.831Z,40.28
2023-03-19T07:45:22.643Z,36.95
2023-03-19T07:47:51.406Z,33.88
2023-03-19T07:50:17.977Z,33.25
2023-03-19T07:52:48.343Z,32.05
2023-03-19T07:55:15.626Z,30.13
2023-03-19T07:57:42.322Z,34.65
2023-03-19T08:00:10.642Z,34.75
2023-03-19T08:02:37.089Z,30.85
2023-03-19T08:05:04.900Z,36.20
2023-03-19T08:07:32.234Z,40.67
2023-03-19T08:09:58.838Z,37.22
2023-03-19T08:12:26.107Z,29.63
2023-03-19T08:14:52.572Z,36.58
2023-03-19T08:17:19.285Z,28.55
2023-03-19T08:19:46.887Z,33.83
2023-03-19T08:22:13.346Z,32.05
2023-03-19T08:24:39.880Z,32.28
2023-03-19T08:27:06.805Z,32.20
2023-03-19T08:29:33.510Z,28.75
2023-03-19T08:32:01.232Z,37.70
2023-03-19T08:34:27.890Z,32.88
2023-03-19T08:36:54.368Z,38.05
2023-03-19T08:39:20.823Z,35.63
2023-03-19T08:41:47.280Z,35.95
2023-03-19T08:44:14.101Z,34.33
2023-03-19T08:46:42.476Z,36.50
2023-03-19T08:49:09.158Z,37.80
2023-03-19T08:51:36.321Z,39.45
2023-03-19T08:54:02.774Z,41.83
2023-03-19T08:56:29.207Z,47.75
2023-03-19T08:58:57.250Z,35.30
2023-03-19T09:01:24.334Z,36.20
2023-03-19T09:03:51.061Z,38.25
2023-03-19T09:06:17.769Z,49.70
2023-03-19T09:08:44.835Z,44.13
2023-03-19T09:11:11.717Z,40.00
2023-03-19T09:13:38.348Z,39.65
2023-03-19T09:16:05.748Z,39.45
2023-03-19T09:18:33.149Z,36.88
2023-03-19T09:21:00.765Z,41.30
2023-03-19T09:23:27.950Z,39.00
2023-03-19T09:25:54.642Z,35.10
2023-03-19T09:28:21.166Z,39.72
2023-03-19T09:30:50.214Z,46.03
2023-03-19T09:33:18.717Z,33.45
2023-03-19T09:35:50.958Z,39.50
2023-03-19T09:38:17.537Z,36.55
2023-03-19T09:40:47.814Z,32.65
2023-03-19T09:44:00.685Z,35.08
2023-03-19T09:46:44.469Z,36.50
2023-03-19T09:49:32.706Z,27.48
2023-03-19T09:52:20.541Z,35.78
2023-03-19T09:54:52.600Z,30.77
2023-03-19T09:57:19.887Z,31.30
2023-03-19T09:59:47.765Z,27.52
2023-03-19T10:02:37.976Z,28.77
2023-03-19T10:05:18.589Z,29.02
2023-03-19T10:08:39.446Z,27.35
2023-03-19T10:11:15.293Z,27.13
2023-03-19T10:13:56.504Z,32.03
2023-03-19T10:16:26.232Z,27.80
2023-03-19T10:18:55.912Z,28.17
2023-03-19T10:21:34.342Z,24.23
2023-03-19T10:24:05.088Z,24.60
2023-03-19T10:26:36.764Z,25.47
2023-03-19T10:31:39.513Z,23.05
2023-03-19T10:34:19.050Z,27.13
2023-03-19T10:36:45.493Z,20.63
2023-03-19T10:39:16.470Z,19.25
2023-03-19T10:41:51.152Z,17.52
2023-03-19T10:44:42.301Z,20.10
2023-03-19T10:47:14.128Z,21.45
2023-03-19T10:49:41.042Z,21.10
2023-03-19T10:52:19.993Z,18.23
2023-03-19T10:54:46.446Z,21.17
2023-03-19T10:57:26.133Z,15.02
2023-03-19T10:59:53.067Z,17.13
2023-03-19T11:02:23.282Z,16.92
2023-03-19T11:05:08.915Z,16.80
2023-03-19T11:07:37.140Z,16.38
2023-03-19T11:10:03.869Z,15.88
2023-03-19T11:12:35.244Z,16.90
2023-03-19T11:15:07.448Z,17.38
2023-03-19T11:17:39.644Z,14.95
2023-03-19T11:20:15.775Z,14.98
2023-03-19T11:22:42.851Z,14.43
2023-03-19T11:25:18.989Z,16.40
2023-03-19T11:27:58.983Z,14.82
2023-03-19T11:30:33.440Z,12.32
2023-03-19T11:33:07.858Z,16.15
2023-03-19T11:36:25.556Z,12.13
2023-03-19T11:39:06.918Z,15.45
2023-03-19T11:41:40.874Z,13.68
2023-03-19T11:44:19.200Z,12.57
2023-03-19T11:46:55.569Z,14.15
2023-03-19T11:49:30.273Z,14.77
2023-03-19T11:52:05.191Z,17.15
2023-03-19T11:54:39.002Z,12.48
2023-03-19T11:57:18.857Z,13.25
2023-03-19T12:00:20.822Z,17.45
2023-03-19T12:03:06.614Z,16.73
2023-03-19T12:06:12.171Z,16.98
2023-03-19T12:08:51.177Z,15.38
2023-03-19T12:11:23.608Z,15.50
2023-03-19T12:14:16.238Z,14.60
2023-03-19T12:17:04.899Z,15.57
2023-03-19T12:19:47.616Z,20.15
2023-03-19T12:22:14.668Z,17.40
2023-03-19T12:24:57.592Z,15.27
2023-03-19T12:27:34.592Z,12.77
2023-03-19T12:30:06.630Z,12.90
2023-03-19T12:32:58.189Z,14.55
2023-03-19T12:35:32.545Z,13.50
2023-03-19T12:38:16.711Z,14.38
2023-03-19T12:40:58.274Z,14.10
2023-03-19T12:43:37.201Z,19.13
2023-03-19T12:46:14.477Z,15.75
2023-03-19T12:48:48.419Z,23.23
2023-03-19T12:51:20.189Z,16.00
2023-03-19T12:53:46.706Z,13.50
2023-03-19T12:56:23.684Z,13.32
2023-03-19T12:58:58.142Z,12.27
2023-03-19T13:01:36.433Z,19.98
2023-03-19T13:04:15.362Z,12.25
2023-03-19T13:07:05.971Z,14.68
2023-03-19T13:09:54.807Z,14.55
2023-03-19T13:12:28.108Z,10.98
2023-03-19T13:15:03.636Z,14.35
2023-03-19T13:18:07.956Z,12.93
2023-03-19T13:21:33.467Z,13.43
2023-03-19T13:24:02.870Z,14.70
2023-03-19T13:26:29.845Z,12.50
2023-03-19T13:29:01.550Z,16.02
2023-03-19T13:31:29.233Z,14.43
2023-03-19T13:34:18.069Z,14.82
2023-03-19T13:37:00.568Z,9.95
2023-03-19T13:39:31.075Z,13.23
2023-03-19T13:42:07.808Z,12.43
2023-03-19T13:44:39.793Z,14.80
2023-03-19T13:47:24.541Z,9.63
2023-03-19T13:50:08.482Z,10.05
2023-03-19T13:52:50.534Z,15.52
2023-03-19T13:55:26.677Z,13.18
2023-03-19T13:58:12.366Z,10.35
2023-03-19T14:00:42.713Z,13.27
2023-03-19T14:03:24.799Z,15.63
2023-03-19T14:05:55.114Z,11.77
2023-03-19T14:08:27.483Z,16.13
2023-03-19T14:10:57.904Z,11.45
2023-03-19T14:13:37.895Z,13.02
2023-03-19T14:16:22.630Z,13.02
2023-03-19T14:18:49.748Z,14.95
2023-03-19T14:21:32.649Z,14.38
2023-03-19T14:24:54.815Z,14.43
2023-03-19T14:27:16.909Z,13.05
2023-03-19T14:29:44.835Z,12.88
2023-03-19T14:32:18.836Z,17.80
2023-03-19T14:34:48.301Z,15.40
2023-03-19T14:37:30.751Z,14.05
2023-03-19T14:40:38.832Z,12.23
2023-03-19T14:43:17.630Z,14.18
2023-03-19T14:45:56.433Z,14.60
2023-03-19T14:48:58.253Z,13.30
2023-03-19T14:51:57.422Z,14.90
2023-03-19T14:54:45.714Z,13.13
2023-03-19T14:57:27.419Z,17.42
2023-03-19T14:59:55.459Z,14.18
2023-03-19T15:02:39.597Z,15.90
2023-03-19T15:05:19.553Z,11.52
2023-03-19T15:07:49.445Z,10.68
2023-03-19T15:10:21.383Z,15.85
2023-03-19T15:12:55.648Z,11.20
2023-03-19T15:15:24.808Z,12.50
2023-03-19T15:18:10.623Z,13.10
2023-03-19T15:20:44.498Z,14.43
2023-03-19T15:23:26.397Z,13.30
2023-03-19T15:26:01.116Z,13.68
2023-03-19T15:28:45.698Z,18.65
2023-03-19T15:31:29.927Z,15.70
2023-03-19T15:33:58.915Z,14.90
2023-03-19T15:36:31.327Z,14.55
2023-03-19T15:39:09.882Z,18.80
2023-03-19T15:41:41.659Z,16.48
2023-03-19T15:44:15.581Z,16.45
2023-03-19T15:46:44.555Z,16.05
2023-03-19T15:49:16.725Z,15.05
2023-03-19T15:51:45.394Z,13.80
2023-03-19T15:54:11.879Z,13.73
2023-03-19T15:56:39.287Z,17.35
2023-03-19T15:59:05.922Z,14.73
2023-03-19T16:01:34.782Z,13.70
2023-03-19T16:04:05.627Z,17.20
2023-03-19T16:06:36.947Z,20.33
2023-03-19T16:09:25.272Z,12.30
2023-03-19T16:11:52.450Z,13.55
2023-03-19T16:14:27.845Z,19.48
2023-03-19T16:17:15.684Z,25.98
2023-03-19T16:19:53.216Z,14.57
2023-03-19T16:22:30.669Z,19.88
2023-03-19T16:24:58.468Z,16.73
2023-03-19T16:27:38.417Z,20.33
2023-03-19T16:30:15.999Z,15.00
2023-03-19T16:32:42.689Z,16.30
2023-03-19T16:35:14.158Z,16.52
2023-03-19T16:37:42.135Z,18.27
2023-03-19T16:40:15.612Z,17.63
2023-03-19T16:42:44.084Z,19.20
2023-03-19T16:45:28.658Z,22.35
2023-03-19T16:47:57.883Z,19.05
2023-03-19T16:50:36.748Z,15.60
2023-03-19T16:53:13.125Z,19.52
2023-03-19T16:55:39.801Z,20.15
2023-03-19T16:58:13.191Z,17.77
2023-03-19T17:00:39.833Z,26.10
2023-03-19T17:03:13.253Z,20.73
2023-03-19T17:05:39.705Z,28.63
2023-03-19T17:08:06.165Z,20.77
2023-03-19T17:10:34.154Z,19.42
2023-03-19T17:15:39.078Z,22.75
2023-03-19T17:18:20.266Z,20.00
2023-03-19T17:20:54.307Z,18.55
2023-03-19T17:23:24.335Z,21.65
2023-03-19T17:25:51.862Z,27.02
2023-03-19T17:28:18.413Z,19.63
2023-03-19T17:30:44.968Z,22.42
2023-03-19T17:33:30.636Z,24.60
2023-03-19T17:35:59.009Z,18.27
2023-03-19T17:38:33.853Z,22.17
2023-03-19T17:41:00.413Z,20.40
2023-03-19T17:43:26.900Z,22.55
2023-03-19T17:45:54.784Z,19.85
2023-03-19T17:48:25.589Z,37.92
2023-03-19T17:50:54.049Z,26.77
2023-03-19T17:53:20.563Z,23.30
2023-03-19T17:55:47.116Z,20.25
2023-03-19T17:58:19.507Z,20.25
2023-03-19T18:00:47.361Z,21.63
2023-03-19T18:03:17.795Z,18.83
2023-03-19T18:05:44.589Z,24.27
2023-03-19T18:08:16.145Z,17.55
2023-03-19T18:10:42.824Z,23.10
2023-03-19T18:13:10.044Z,20.58
2023-03-19T18:15:37.941Z,16.08
2023-03-19T18:18:06.905Z,23.17
2023-03-19T18:20:39.867Z,24.70
2023-03-19T18:23:06.612Z,20.05
2023-03-19T18:25:35.525Z,24.65
2023-03-19T18:28:03.394Z,21.90
2023-03-19T18:30:33.007Z,23.83
2023-03-19T18:33:03.081Z,26.05
2023-03-19T18:35:36.515Z,20.48
2023-03-19T18:38:03.378Z,21.25
2023-03-19T18:40:32.832Z,25.00
2023-03-19T18:42:59.600Z,32.13
2023-03-19T18:45:30.310Z,23.90
2023-03-19T18:47:57.241Z,22.13
2023-03-19T18:50:28.541Z,20.33
2023-03-19T18:52:56.124Z,22.30
2023-03-19T18:55:28.561Z,19.98
2023-03-19T18:57:59.215Z,19.92
2023-03-19T19:00:29.286Z,16.83
2023-03-19T19:02:56.625Z,18.80
2023-03-19T19:05:27.901Z,18.75
2023-03-19T19:07:56.485Z,16.40
2023-03-19T19:10:24.604Z,21.20
2023-03-19T19:12:53.529Z,15.57
2023-03-19T19:15:24.257Z,21.38
2023-03-19T19:17:52.238Z,18.03
2023-03-19T22:40:21.390Z,9.35
2023-03-19T22:42:49.562Z,10.77
2023-03-19T22:45:18.995Z,9.57
2023-03-19T22:47:46.322Z,11.07
2023-03-19T22:50:18.238Z,9.75
2023-03-19T22:52:44.904Z,13.68
2023-03-19T22:55:11.521Z,8.65
2023-03-19T22:57:40.293Z,9.55
2023-03-19T23:00:14.274Z,8.20
2023-03-19T23:02:43.814Z,8.30
2023-03-19T23:05:40.896Z,9.73
2023-03-19T23:08:07.343Z,11.32
2023-03-19T23:10:35.829Z,6.85
2023-03-19T23:13:02.856Z,10.40
2023-03-19T23:15:31.355Z,9.10
2023-03-19T23:17:59.634Z,6.72
2023-03-19T23:20:28.307Z,11.27
2023-03-19T23:22:55.650Z,7.10
2023-03-19T23:25:27.511Z,7.60
2023-03-19T23:28:01.551Z,12.20
2023-03-19T23:30:31.509Z,10.38
2023-03-19T23:33:00.757Z,10.60
2023-03-19T23:35:29.798Z,9.52
2023-03-19T23:37:57.553Z,7.35
2023-03-19T23:40:31.366Z,8.13
2023-03-19T23:42:58.825Z,9.52
2023-03-19T23:45:31.422Z,6.82
2023-03-19T23:48:00.050Z,8.43
2023-03-19T23:50:26.893Z,9.18
2023-03-19T23:52:53.468Z,6.88
2023-03-19T23:55:20.212Z,11.82
2023-03-19T23:57:47.374Z,7.45
